ZWL weather

Wollaston Lake Airport
Wollaston Lake, Saskatchewan, Canada

Public forecast

Using degrees Celsius for public forecast. Weather courtesy of forecast.io.

Closest aviation weather report (METAR) to Wollaston Lake Airport

Closest report is Key Lake Airport, 93.7 nm (173.5 km) WSW. Retrieved 2020/08/05 07:00 UTC (49 minutes ago):

CYKJ 050700Z AUTO 22005KT 9SM CLR 15/10 A2981 RMK SLP102 DENSITY ALT 2200FT

Closest aviation forecast (TAF) to Wollaston Lake Airport

Forecast is more than 12 hours old.

Closest forecast is Key Lake Airport, 93.7 nm (173.5 km) WSW. Retrieved 2020/08/04 19:00 UTC (13 hours ago):

TAF CYKJ 041838Z 0419/0424 28010G20KT P6SM FEW040 BKN060 FM042100 28008KT P6SM FEW040 RMK FCST BASED ON AUTO OBS NXT FCST WILL BE ISSUED AT 050945Z